createdAt,value
2017-10-01T00:00:07.849Z,20.4
2017-10-01T00:02:05.065Z,20.3
2017-10-01T00:04:04.843Z,20.3
2017-10-01T00:06:05.703Z,20.3
2017-10-01T00:08:05.378Z,20.3
2017-10-01T00:10:07.131Z,20.3
2017-10-01T00:12:07.413Z,20.3
2017-10-01T00:14:05.091Z,20.3
2017-10-01T00:16:05.489Z,20.3
2017-10-01T00:18:08.251Z,20.2
2017-10-01T00:20:05.108Z,20.2
2017-10-01T00:22:07.901Z,20.2
2017-10-01T00:24:05.862Z,20.2
2017-10-01T00:26:05.596Z,20.2
2017-10-01T00:28:05.359Z,20.2
2017-10-01T00:30:05.143Z,20.2
2017-10-01T00:32:05.061Z,20.2
2017-10-01T00:34:04.800Z,20.2
2017-10-01T00:36:10.665Z,20.2
2017-10-01T00:38:05.065Z,20.2
2017-10-01T00:40:04.764Z,20.3
2017-10-01T00:42:04.615Z,20.3
2017-10-01T00:44:04.900Z,20.3
2017-10-01T00:46:09.663Z,20.3
2017-10-01T00:48:05.472Z,20.3
2017-10-01T00:50:05.288Z,20.3
2017-10-01T00:52:10.095Z,20.2
2017-10-01T00:54:04.900Z,20.2
2017-10-01T00:56:05.190Z,20.3
2017-10-01T00:58:04.909Z,20.3
2017-10-01T01:00:05.197Z,20.2
2017-10-01T01:02:07.445Z,20.2
2017-10-01T01:04:05.183Z,20.2
2017-10-01T01:06:05.032Z,20.2
2017-10-01T01:08:12.390Z,20.2
2017-10-01T01:10:07.802Z,20.2
2017-10-01T01:12:05.638Z,20.2
2017-10-01T01:14:07.561Z,20.2
2017-10-01T01:16:05.239Z,20.2
2017-10-01T01:18:17.959Z,20.2
2017-10-01T01:20:05.280Z,20.2
2017-10-01T01:22:04.991Z,20.2
2017-10-01T01:24:04.999Z,20.2
2017-10-01T01:26:04.847Z,20.1
2017-10-01T01:28:05.495Z,20.1
2017-10-01T01:30:15.523Z,20.1
2017-10-01T01:32:05.261Z,20.1
2017-10-01T01:34:05.100Z,20.1
2017-10-01T01:36:04.930Z,20.1
2017-10-01T01:38:07.402Z,20
2017-10-01T01:40:05.273Z,20.1
2017-10-01T01:42:05.225Z,20
2017-10-01T01:44:04.923Z,20
2017-10-01T01:46:04.637Z,20
2017-10-01T01:48:05.643Z,20
2017-10-01T01:50:05.630Z,20
2017-10-01T01:52:05.605Z,20
2017-10-01T01:54:05.363Z,20
2017-10-01T01:56:05.382Z,20
2017-10-01T01:58:04.997Z,20
2017-10-01T02:00:04.863Z,20
2017-10-01T02:02:05.167Z,20
2017-10-01T02:04:05.355Z,20
2017-10-01T02:06:05.076Z,20
2017-10-01T02:08:05.343Z,20
2017-10-01T02:10:07.548Z,20
2017-10-01T02:12:12.804Z,20
2017-10-01T02:14:05.141Z,20
2017-10-01T02:16:14.988Z,20
2017-10-01T02:18:04.898Z,20
2017-10-01T02:20:05.561Z,20
2017-10-01T02:22:07.328Z,20
2017-10-01T02:24:04.981Z,20
2017-10-01T02:26:09.724Z,20
2017-10-01T02:28:04.998Z,20
2017-10-01T02:30:04.875Z,20
2017-10-01T02:32:04.587Z,19.9
2017-10-01T02:34:05.265Z,19.9
2017-10-01T02:36:04.992Z,20
2017-10-01T02:38:04.817Z,20
2017-10-01T02:40:05.509Z,19.9
2017-10-01T02:42:04.851Z,19.9
2017-10-01T02:44:05.167Z,19.9
2017-10-01T02:46:04.905Z,19.9
2017-10-01T02:48:05.601Z,19.9
2017-10-01T02:50:05.321Z,19.9
2017-10-01T02:52:07.214Z,19.9
2017-10-01T02:54:05.185Z,19.9
2017-10-01T02:56:04.866Z,20
2017-10-01T02:58:08.115Z,19.9
2017-10-01T03:00:05.515Z,19.9
2017-10-01T03:02:07.934Z,19.9
2017-10-01T03:04:04.640Z,19.9
2017-10-01T03:06:05.346Z,20
2017-10-01T03:08:05.062Z,19.9
2017-10-01T03:10:04.788Z,19.9
2017-10-01T03:12:04.718Z,20
2017-10-01T03:14:08.027Z,19.9
2017-10-01T03:16:04.740Z,19.9
2017-10-01T03:18:04.869Z,19.9
2017-10-01T03:20:05.590Z,19.9
2017-10-01T03:22:04.830Z,19.8
2017-10-01T03:24:05.612Z,19.9
2017-10-01T03:26:05.292Z,19.8
2017-10-01T03:28:05.521Z,19.8
2017-10-01T03:30:05.287Z,19.7
2017-10-01T03:32:04.972Z,19.7
2017-10-01T03:34:04.848Z,19.7
2017-10-01T03:36:05.769Z,19.7
2017-10-01T03:38:05.454Z,19.6
2017-10-01T03:40:05.166Z,19.7
2017-10-01T03:42:05.059Z,19.6
2017-10-01T03:44:05.353Z,19.6
2017-10-01T03:46:05.065Z,19.7
2017-10-01T03:48:09.831Z,19.6
2017-10-01T03:50:05.201Z,19.6
2017-10-01T03:52:04.918Z,19.6
2017-10-01T03:54:05.591Z,19.6
2017-10-01T03:56:07.802Z,19.6
2017-10-01T03:58:13.079Z,19.6
2017-10-01T04:00:05.318Z,19.6
2017-10-01T04:02:05.112Z,19.6
2017-10-01T04:04:04.815Z,19.6
2017-10-01T04:06:05.507Z,19.5
2017-10-01T04:08:05.159Z,19.5
2017-10-01T04:10:04.945Z,19.5
2017-10-01T04:12:17.449Z,19.4
2017-10-01T04:14:04.655Z,19.4
2017-10-01T04:16:10.391Z,19.3
2017-10-01T04:18:05.254Z,19.3
2017-10-01T04:20:05.527Z,19.3
2017-10-01T04:22:05.420Z,19.3
2017-10-01T04:24:05.222Z,19.3
2017-10-01T04:26:04.970Z,19.4
2017-10-01T04:28:07.727Z,19.4
2017-10-01T04:30:05.846Z,19.4
2017-10-01T04:32:05.619Z,19.4
2017-10-01T04:34:05.348Z,19.4
2017-10-01T04:36:08.153Z,19.5
2017-10-01T04:38:04.853Z,19.4
2017-10-01T04:40:05.560Z,19.5
2017-10-01T04:42:05.123Z,19.5
2017-10-01T04:44:04.893Z,19.5
2017-10-01T04:46:08.111Z,19.5
2017-10-01T04:48:10.502Z,19.5
2017-10-01T04:50:07.782Z,19.5
2017-10-01T04:52:05.622Z,19.5
2017-10-01T04:54:09.299Z,19.5
2017-10-01T04:56:08.331Z,19.4
2017-10-01T04:58:04.765Z,19.5
2017-10-01T05:00:05.776Z,19.5
2017-10-01T05:02:08.012Z,19.5
2017-10-01T05:04:04.792Z,19.5
2017-10-01T05:06:05.707Z,19.5
2017-10-01T05:08:05.423Z,19.5
2017-10-01T05:10:05.373Z,19.5
2017-10-01T05:12:05.352Z,19.5
2017-10-01T05:14:05.066Z,19.5
2017-10-01T05:16:04.833Z,19.4
2017-10-01T05:18:05.521Z,19.4
2017-10-01T05:20:12.829Z,19.4
2017-10-01T05:22:05.565Z,19.4
2017-10-01T05:24:05.464Z,19.5
2017-10-01T05:26:05.393Z,19.5
2017-10-01T05:28:04.822Z,19.4
2017-10-01T05:30:05.544Z,19.4
2017-10-01T05:32:04.822Z,19.4
2017-10-01T05:34:05.648Z,19.4
2017-10-01T05:36:04.993Z,19.4
2017-10-01T05:38:05.250Z,19.4
2017-10-01T05:40:05.012Z,19.4
2017-10-01T05:42:05.405Z,19.5
2017-10-01T05:44:05.214Z,19.5
2017-10-01T05:46:04.921Z,19.5
2017-10-01T05:48:04.798Z,19.5
2017-10-01T05:50:05.056Z,19.5
2017-10-01T05:52:04.837Z,19.4
2017-10-01T05:54:05.116Z,19.5
2017-10-01T05:56:04.818Z,19.5
2017-10-01T05:58:05.954Z,19.4
2017-10-01T06:00:04.856Z,19.4
2017-10-01T06:02:05.602Z,19.4
2017-10-01T06:04:05.336Z,19.4
2017-10-01T06:06:05.322Z,19.4
2017-10-01T06:08:05.194Z,19.4
2017-10-01T06:10:04.897Z,19.4
2017-10-01T06:12:04.737Z,19.4
2017-10-01T06:14:08.101Z,19.4
2017-10-01T06:16:04.870Z,19.4
2017-10-01T06:18:04.959Z,19.4
2017-10-01T06:20:04.701Z,19.4
2017-10-01T06:22:05.419Z,19.4
2017-10-01T06:24:05.177Z,19.3
2017-10-01T06:26:04.923Z,19.3
2017-10-01T06:28:07.249Z,19.3
2017-10-01T06:30:05.019Z,19.3
2017-10-01T06:32:04.734Z,19.3
2017-10-01T06:34:05.405Z,19.4
2017-10-01T06:36:05.146Z,19.4
2017-10-01T06:38:05.459Z,19.3
2017-10-01T06:40:04.762Z,19.3
2017-10-01T06:42:05.472Z,19.3
2017-10-01T06:44:07.953Z,19.3
2017-10-01T06:46:04.729Z,19.3
2017-10-01T06:48:05.052Z,19.3
2017-10-01T06:50:04.758Z,19.3
2017-10-01T06:52:10.069Z,19.4
2017-10-01T06:54:04.945Z,19.5
2017-10-01T06:56:09.841Z,19.6
2017-10-01T06:58:05.604Z,19.6
2017-10-01T07:00:05.365Z,19.6
2017-10-01T07:02:04.632Z,19.7
2017-10-01T07:04:04.978Z,19.6
2017-10-01T07:06:04.785Z,19.7
2017-10-01T07:08:05.444Z,19.7
2017-10-01T07:10:05.148Z,19.7
2017-10-01T07:12:04.882Z,19.7
2017-10-01T07:14:08.290Z,19.8
2017-10-01T07:16:05.009Z,19.8
2017-10-01T07:18:05.053Z,19.9
2017-10-01T07:20:04.694Z,19.9
2017-10-01T07:22:07.917Z,20
2017-10-01T07:24:05.773Z,20
2017-10-01T07:26:08.024Z,20
2017-10-01T07:28:04.760Z,20
2017-10-01T07:30:05.488Z,20
2017-10-01T07:32:05.359Z,20
2017-10-01T07:34:05.263Z,20.1
2017-10-01T07:36:12.806Z,20.1
2017-10-01T07:38:05.523Z,20.2
2017-10-01T07:40:04.986Z,20.2
2017-10-01T07:42:04.732Z,20.2
2017-10-01T07:44:05.454Z,20.2
2017-10-01T07:46:05.230Z,20.3
2017-10-01T07:48:04.941Z,20.3
2017-10-01T07:50:04.722Z,20.3
2017-10-01T07:52:04.669Z,20.3
2017-10-01T07:54:05.461Z,20.3
2017-10-01T07:56:15.273Z,20.4
2017-10-01T07:58:05.115Z,20.4
2017-10-01T08:00:10.624Z,20.4
2017-10-01T08:02:05.409Z,20.4
2017-10-01T08:04:05.258Z,20.5
2017-10-01T08:06:10.689Z,20.6
2017-10-01T08:08:05.540Z,20.5
2017-10-01T08:10:05.284Z,20.6
2017-10-01T08:12:15.272Z,20.7
2017-10-01T08:14:04.993Z,20.7
2017-10-01T08:16:04.737Z,20.7
2017-10-01T08:18:04.885Z,20.8
2017-10-01T08:20:05.164Z,20.8
2017-10-01T08:22:05.777Z,20.8
2017-10-01T08:24:10.752Z,20.9
2017-10-01T08:26:05.098Z,20.9
2017-10-01T08:28:07.327Z,20.9
2017-10-01T08:30:05.125Z,20.9
2017-10-01T08:32:07.893Z,21
2017-10-01T08:34:05.592Z,21
2017-10-01T08:36:08.001Z,21.1
2017-10-01T08:38:04.790Z,21.1
2017-10-01T08:40:05.517Z,21.1
2017-10-01T08:42:05.619Z,21.1
2017-10-01T08:44:05.555Z,21
2017-10-01T08:46:07.238Z,21
2017-10-01T08:48:05.110Z,21
2017-10-01T08:50:04.798Z,21
2017-10-01T08:52:05.580Z,21
2017-10-01T08:54:04.910Z,21.1
2017-10-01T08:56:07.339Z,21.1
2017-10-01T08:58:05.077Z,21.1
2017-10-01T09:00:04.763Z,21.1
2017-10-01T09:02:08.069Z,21.2
2017-10-01T09:04:04.778Z,21.2
2017-10-01T09:06:05.492Z,21.1
2017-10-01T09:08:05.225Z,21.1
2017-10-01T09:10:05.093Z,21.1
2017-10-01T09:12:07.992Z,21.1
2017-10-01T09:14:04.757Z,21.1
2017-10-01T09:16:05.460Z,21.1
2017-10-01T09:18:05.522Z,21.1
2017-10-01T09:20:07.833Z,21.2
2017-10-01T09:22:10.662Z,21.1
2017-10-01T09:24:05.703Z,21.1
2017-10-01T09:26:04.986Z,21.2
2017-10-01T09:28:04.749Z,21.1
2017-10-01T09:30:05.540Z,21.1
2017-10-01T09:32:05.222Z,21.1
2017-10-01T09:34:07.404Z,21.1
2017-10-01T09:36:04.632Z,21.1
2017-10-01T09:38:05.338Z,21.2
2017-10-01T09:40:08.217Z,21.1
2017-10-01T09:42:07.618Z,21.1
2017-10-01T09:44:09.969Z,21.1
2017-10-01T09:46:07.257Z,21.1
2017-10-01T09:48:05.148Z,21.1
2017-10-01T09:50:04.910Z,21.1
2017-10-01T09:52:04.670Z,21
2017-10-01T09:54:08.009Z,21
2017-10-01T09:56:05.281Z,21
2017-10-01T09:58:05.162Z,21
2017-10-01T10:00:10.103Z,21
2017-10-01T10:02:04.783Z,21
2017-10-01T10:04:05.487Z,21
2017-10-01T10:06:05.315Z,20.9
2017-10-01T10:08:05.036Z,21
2017-10-01T10:10:04.794Z,21
2017-10-01T10:12:05.173Z,20.9
2017-10-01T10:14:05.163Z,20.9
2017-10-01T10:16:05.400Z,20.9
2017-10-01T10:18:05.328Z,20.8
2017-10-01T10:20:05.087Z,20.8
2017-10-01T10:22:04.868Z,20.8
2017-10-01T10:24:05.729Z,20.8
2017-10-01T10:26:04.969Z,20.9
2017-10-01T10:28:04.640Z,20.8
2017-10-01T10:30:05.474Z,20.9
2017-10-01T10:32:07.302Z,20.8
2017-10-01T10:34:05.024Z,20.8
2017-10-01T10:36:04.783Z,20.8
2017-10-01T10:38:05.513Z,20.8
2017-10-01T10:40:07.839Z,20.8
2017-10-01T10:42:08.331Z,20.8
2017-10-01T10:44:05.071Z,20.8
2017-10-01T10:46:04.846Z,20.7
2017-10-01T10:48:05.852Z,20.7
2017-10-01T10:50:05.557Z,20.7
2017-10-01T10:52:07.800Z,20.8
2017-10-01T10:54:05.675Z,20.7
2017-10-01T10:56:05.345Z,20.7
2017-10-01T10:58:05.155Z,20.7
2017-10-01T11:00:07.559Z,20.6
2017-10-01T11:02:05.371Z,20.6
2017-10-01T11:04:05.396Z,20.6
2017-10-01T11:06:10.417Z,20.6
2017-10-01T11:08:05.290Z,20.6
2017-10-01T11:10:04.997Z,20.6
2017-10-01T11:12:10.756Z,20.5
2017-10-01T11:14:05.479Z,20.6
2017-10-01T11:16:05.741Z,20.6
2017-10-01T11:18:05.249Z,20.6
2017-10-01T11:20:05.450Z,20.6
2017-10-01T11:22:05.149Z,20.6
2017-10-01T11:24:05.001Z,20.7
2017-10-01T11:26:04.675Z,20.6
2017-10-01T11:28:04.724Z,20.6
2017-10-01T11:30:05.563Z,20.6
2017-10-01T11:32:05.261Z,20.6
2017-10-01T11:34:05.208Z,20.6
2017-10-01T11:36:05.626Z,20.7
2017-10-01T11:38:05.419Z,20.6
2017-10-01T11:40:05.136Z,20.6
2017-10-01T11:42:05.000Z,20.6
2017-10-01T11:44:04.728Z,20.5
2017-10-01T11:46:05.456Z,20.6
2017-10-01T11:48:05.356Z,20.6
2017-10-01T11:50:10.173Z,20.6
2017-10-01T11:52:05.012Z,20.5
2017-10-01T11:54:04.782Z,20.5
2017-10-01T11:56:08.009Z,20.5
2017-10-01T11:58:04.817Z,20.5
2017-10-01T12:00:08.233Z,20.5
2017-10-01T12:02:04.901Z,20.5
2017-10-01T12:04:04.693Z,20.5
2017-10-01T12:06:05.451Z,20.5
2017-10-01T12:08:05.165Z,20.5
2017-10-01T12:10:07.392Z,20.5
2017-10-01T12:12:05.752Z,20.5
2017-10-01T12:14:05.163Z,20.5
2017-10-01T12:16:08.361Z,20.5
2017-10-01T12:18:05.340Z,20.5
2017-10-01T12:20:05.492Z,20.5
2017-10-01T12:22:07.739Z,20.5
2017-10-01T12:24:08.064Z,20.5
2017-10-01T12:26:07.796Z,20.5
2017-10-01T12:28:05.549Z,20.4
2017-10-01T12:30:05.273Z,20.5
2017-10-01T12:32:05.994Z,20.5
2017-10-01T12:34:04.710Z,20.5
2017-10-01T12:36:05.643Z,20.5
2017-10-01T12:38:05.332Z,20.5
2017-10-01T12:40:07.934Z,20.5
2017-10-01T12:42:04.904Z,20.5
2017-10-01T12:44:04.657Z,20.5
2017-10-01T12:46:04.858Z,20.5
2017-10-01T12:48:04.997Z,20.5
2017-10-01T12:50:04.658Z,20.5
2017-10-01T12:52:06.639Z,20.4
2017-10-01T12:54:05.514Z,20.4
2017-10-01T12:56:05.198Z,20.4
2017-10-01T12:58:04.878Z,20.4
2017-10-01T13:00:04.677Z,20.4
2017-10-01T13:02:05.487Z,20.3
2017-10-01T13:04:05.250Z,20.3
2017-10-01T13:06:08.048Z,20.4
2017-10-01T13:08:04.810Z,20.4
2017-10-01T13:10:05.529Z,20.4
2017-10-01T13:12:05.204Z,20.4
2017-10-01T13:14:04.932Z,20.4
2017-10-01T13:16:04.693Z,20.4
2017-10-01T13:18:05.624Z,20.4
2017-10-01T13:20:07.841Z,20.4
2017-10-01T13:22:05.514Z,20.4
2017-10-01T13:24:05.220Z,20.4
2017-10-01T13:26:04.995Z,20.4
2017-10-01T13:28:04.708Z,20.4
2017-10-01T13:30:05.500Z,20.4
2017-10-01T13:32:05.273Z,20.4
2017-10-01T13:34:05.091Z,20.4
2017-10-01T13:36:04.878Z,20.3
2017-10-01T13:38:04.682Z,20.4
2017-10-01T13:40:05.362Z,20.3
2017-10-01T13:42:05.256Z,20.4
2017-10-01T13:44:04.956Z,20.4
2017-10-01T13:46:04.722Z,20.4
2017-10-01T13:48:10.665Z,20.3
2017-10-01T13:50:05.399Z,20.3
2017-10-01T13:52:05.101Z,20.4
2017-10-01T13:54:07.462Z,20.3
2017-10-01T13:56:12.777Z,20.3
2017-10-01T13:58:05.487Z,20.3
2017-10-01T14:00:05.256Z,20.3
2017-10-01T14:02:04.971Z,20.3
2017-10-01T14:04:04.659Z,20.3
2017-10-01T14:06:05.415Z,20.3
2017-10-01T14:08:05.186Z,20.2
2017-10-01T14:10:04.901Z,20.3
2017-10-01T14:12:05.285Z,20.3
2017-10-01T14:14:05.102Z,20.3
2017-10-01T14:16:09.895Z,20.3
2017-10-01T14:18:04.848Z,20.3
2017-10-01T14:20:05.593Z,20.2
2017-10-01T14:22:05.328Z,20.2
2017-10-01T14:24:05.202Z,20.2
2017-10-01T14:26:05.477Z,20.2
2017-10-01T14:28:04.936Z,20.2
2017-10-01T14:30:07.341Z,20.2
2017-10-01T14:32:05.015Z,20.2
2017-10-01T14:34:07.248Z,20.3
2017-10-01T14:36:05.093Z,20.2
2017-10-01T14:38:04.741Z,20.2
2017-10-01T14:40:05.423Z,20.2
2017-10-01T14:42:04.976Z,20.2
2017-10-01T14:44:14.845Z,20.2
2017-10-01T14:46:05.918Z,20.2
2017-10-01T14:48:04.969Z,20.2
2017-10-01T14:50:07.763Z,20.2
2017-10-01T14:52:05.438Z,20.2
2017-10-01T14:54:05.183Z,20.2
2017-10-01T14:56:04.952Z,20.2
2017-10-01T14:58:04.653Z,20.2
2017-10-01T15:00:05.544Z,20.2
2017-10-01T15:02:05.299Z,20.2
2017-10-01T15:04:05.121Z,20.1
2017-10-01T15:06:04.845Z,20.2
2017-10-01T15:08:05.578Z,20.2
2017-10-01T15:10:04.792Z,20.1
2017-10-01T15:12:05.191Z,20.1
2017-10-01T15:14:05.415Z,20.1
2017-10-01T15:16:04.616Z,20.1
2017-10-01T15:18:05.158Z,20.1
2017-10-01T15:20:04.884Z,20.2
2017-10-01T15:22:04.589Z,20.1
2017-10-01T15:24:05.333Z,20.2
2017-10-01T15:26:10.105Z,20.1
2017-10-01T15:28:05.293Z,20.1
2017-10-01T15:30:04.957Z,20.1
2017-10-01T15:32:04.665Z,20.1
2017-10-01T15:34:07.447Z,20.1
2017-10-01T15:36:10.569Z,20.1
2017-10-01T15:38:05.362Z,20.1
2017-10-01T15:40:05.097Z,20.1
2017-10-01T15:42:04.837Z,20.1
2017-10-01T15:44:05.534Z,20.1
2017-10-01T15:46:05.259Z,20.1
2017-10-01T15:48:05.516Z,20.1
2017-10-01T15:50:05.473Z,20.1
2017-10-01T15:52:04.728Z,20.1
2017-10-01T15:54:05.470Z,20.1
2017-10-01T15:56:05.214Z,20.1
2017-10-01T15:58:04.981Z,20.1
2017-10-01T16:00:10.297Z,20
2017-10-01T16:02:04.933Z,20
2017-10-01T16:04:05.131Z,20
2017-10-01T16:06:07.423Z,20
2017-10-01T16:08:05.246Z,20
2017-10-01T16:10:07.475Z,20
2017-10-01T16:12:05.272Z,20
2017-10-01T16:14:04.986Z,20
2017-10-01T16:16:04.726Z,20
2017-10-01T16:18:04.652Z,20
2017-10-01T16:20:05.424Z,19.9
2017-10-01T16:22:05.352Z,20
2017-10-01T16:24:05.122Z,20
2017-10-01T16:26:05.369Z,19.9
2017-10-01T16:28:05.106Z,20
2017-10-01T16:30:05.268Z,20
2017-10-01T16:32:05.091Z,19.9
2017-10-01T16:34:05.375Z,19.9
2017-10-01T16:36:12.254Z,19.9
2017-10-01T16:38:05.820Z,19.9
2017-10-01T16:40:05.545Z,19.9
2017-10-01T16:42:05.274Z,19.9
2017-10-01T16:44:04.960Z,19.9
2017-10-01T16:46:04.690Z,19.9
2017-10-01T16:48:04.904Z,19.9
2017-10-01T16:50:05.811Z,19.9
2017-10-01T16:52:08.082Z,19.9
2017-10-01T16:54:04.862Z,19.9
2017-10-01T16:56:04.778Z,19.9
2017-10-01T16:58:08.020Z,19.9
2017-10-01T17:00:04.777Z,19.9
2017-10-01T17:02:05.475Z,19.9
2017-10-01T17:04:05.656Z,19.9
2017-10-01T17:06:07.952Z,19.9
2017-10-01T17:08:07.355Z,19.9
2017-10-01T17:10:07.853Z,19.9
2017-10-01T17:12:12.387Z,19.8
2017-10-01T17:14:11.618Z,19.8
2017-10-01T17:16:10.134Z,19.8
2017-10-01T17:18:07.661Z,19.9
2017-10-01T17:20:05.008Z,19.8
2017-10-01T17:22:04.875Z,19.9
2017-10-01T17:24:04.692Z,19.9
2017-10-01T17:26:04.885Z,19.9
2017-10-01T17:28:05.120Z,19.9
2017-10-01T17:30:07.371Z,19.9
2017-10-01T17:32:07.628Z,19.8
2017-10-01T17:34:05.864Z,19.9
2017-10-01T17:36:05.555Z,19.9
2017-10-01T17:38:05.792Z,19.8
2017-10-01T17:40:05.371Z,19.9
2017-10-01T17:42:05.173Z,19.9
2017-10-01T17:44:07.839Z,19.8
2017-10-01T17:46:15.830Z,19.8
2017-10-01T17:48:10.131Z,19.8
2017-10-01T17:50:04.865Z,19.8
2017-10-01T17:52:10.577Z,19.8
2017-10-01T17:54:09.854Z,19.7
2017-10-01T17:56:05.534Z,19.7
2017-10-01T17:58:05.437Z,19.7
2017-10-01T18:00:05.237Z,19.7
2017-10-01T18:02:10.209Z,19.7
2017-10-01T18:04:04.899Z,19.7
2017-10-01T18:06:05.573Z,19.7
2017-10-01T18:08:05.367Z,19.7
2017-10-01T18:10:05.178Z,19.7
2017-10-01T18:12:05.499Z,19.7
2017-10-01T18:14:05.493Z,19.7
2017-10-01T18:16:07.720Z,19.7
2017-10-01T18:18:05.597Z,19.6
2017-10-01T18:20:04.828Z,19.7
2017-10-01T18:22:05.832Z,19.7
2017-10-01T18:24:05.516Z,19.7
2017-10-01T18:26:04.741Z,19.7
2017-10-01T18:28:07.984Z,19.7
2017-10-01T18:30:04.715Z,19.7
2017-10-01T18:32:05.413Z,19.7
2017-10-01T18:34:07.736Z,19.7
2017-10-01T18:36:05.408Z,19.7
2017-10-01T18:38:05.157Z,19.7
2017-10-01T18:40:05.025Z,19.7
2017-10-01T18:42:09.878Z,19.7
2017-10-01T18:44:05.562Z,19.7
2017-10-01T18:46:07.959Z,19.7
2017-10-01T18:48:09.686Z,19.7
2017-10-01T18:50:07.944Z,19.7
2017-10-01T18:52:04.962Z,19.7
2017-10-01T18:54:04.636Z,19.7
2017-10-01T18:56:05.348Z,19.7
2017-10-01T18:58:05.591Z,19.6
2017-10-01T19:00:07.847Z,19.7
2017-10-01T19:02:04.949Z,19.6
2017-10-01T19:04:04.786Z,19.6
2017-10-01T19:06:04.691Z,19.6
2017-10-01T19:08:07.999Z,19.6
2017-10-01T19:10:09.813Z,19.6
2017-10-01T19:12:05.605Z,19.6
2017-10-01T19:14:07.924Z,19.6
2017-10-01T19:16:04.657Z,19.6
2017-10-01T19:18:05.722Z,19.6
2017-10-01T19:20:05.422Z,19.6
2017-10-01T19:22:04.812Z,19.6
2017-10-01T19:24:05.634Z,19.7
2017-10-01T19:26:07.901Z,19.6
2017-10-01T19:28:04.613Z,19.6
2017-10-01T19:30:04.802Z,19.6
2017-10-01T19:32:05.489Z,19.6
2017-10-01T19:34:07.941Z,19.6
2017-10-01T19:36:04.692Z,19.6
2017-10-01T19:38:05.417Z,19.6
2017-10-01T19:40:07.774Z,19.6
2017-10-01T19:42:05.478Z,19.6
2017-10-01T19:44:05.216Z,19.6
2017-10-01T19:46:04.913Z,19.6
2017-10-01T19:48:10.667Z,19.6
2017-10-01T19:50:05.468Z,19.6
2017-10-01T19:52:05.481Z,19.6
2017-10-01T19:54:04.677Z,19.6
2017-10-01T19:56:07.386Z,19.7
2017-10-01T19:58:05.586Z,19.6
2017-10-01T20:00:05.288Z,19.6
2017-10-01T20:02:05.016Z,19.6
2017-10-01T20:04:04.979Z,19.6
2017-10-01T20:06:04.764Z,19.6
2017-10-01T20:08:05.471Z,19.6
2017-10-01T20:10:05.300Z,19.6
2017-10-01T20:12:05.088Z,19.6
2017-10-01T20:14:07.324Z,19.6
2017-10-01T20:16:05.597Z,19.6
2017-10-01T20:18:05.468Z,19.7
2017-10-01T20:20:07.253Z,19.6
2017-10-01T20:22:07.602Z,19.6
2017-10-01T20:24:04.816Z,19.6
2017-10-01T20:26:05.460Z,19.6
2017-10-01T20:28:05.169Z,19.6
2017-10-01T20:30:04.896Z,19.6
2017-10-01T20:32:05.556Z,19.6
2017-10-01T20:34:04.961Z,19.6
2017-10-01T20:36:04.665Z,19.6
2017-10-01T20:38:05.406Z,19.6
2017-10-01T20:40:07.641Z,19.6
2017-10-01T20:42:05.321Z,19.6
2017-10-01T20:44:05.153Z,19.6
2017-10-01T20:46:05.120Z,19.6
2017-10-01T20:48:05.373Z,19.6
2017-10-01T20:50:05.153Z,19.6
2017-10-01T20:52:04.939Z,19.6
2017-10-01T20:54:04.691Z,19.6
2017-10-01T20:56:05.388Z,19.6
2017-10-01T20:58:04.686Z,19.6
2017-10-01T21:00:05.401Z,19.6
2017-10-01T21:02:04.852Z,19.6
2017-10-01T21:04:04.893Z,19.6
2017-10-01T21:06:05.121Z,19.6
2017-10-01T21:08:05.234Z,19.6
2017-10-01T21:10:05.239Z,19.5
2017-10-01T21:12:07.481Z,19.5
2017-10-01T21:14:08.108Z,19.5
2017-10-01T21:16:05.005Z,19.5
2017-10-01T21:18:11.392Z,19.5
2017-10-01T21:20:04.691Z,19.5
2017-10-01T21:22:07.944Z,19.5
2017-10-01T21:24:12.251Z,19.5
2017-10-01T21:26:05.494Z,19.5
2017-10-01T21:28:10.399Z,19.5
2017-10-01T21:30:05.166Z,19.5
2017-10-01T21:32:04.836Z,19.6
2017-10-01T21:34:06.821Z,19.5
2017-10-01T21:36:05.591Z,19.5
2017-10-01T21:38:08.026Z,19.5
2017-10-01T21:40:10.078Z,19.5
2017-10-01T21:42:08.448Z,19.5
2017-10-01T21:44:04.896Z,19.5
2017-10-01T21:46:07.267Z,19.6
2017-10-01T21:48:05.280Z,19.5
2017-10-01T21:50:05.207Z,19.5
2017-10-01T21:52:07.950Z,19.5
2017-10-01T21:54:04.720Z,19.6
2017-10-01T21:56:05.418Z,19.6
2017-10-01T21:58:05.425Z,19.6
2017-10-01T22:00:05.148Z,19.6
2017-10-01T22:02:04.881Z,19.6
2017-10-01T22:04:05.863Z,19.6
2017-10-01T22:06:05.562Z,19.6
2017-10-01T22:08:05.229Z,19.6
2017-10-01T22:10:07.557Z,19.5
2017-10-01T22:12:05.211Z,19.5
2017-10-01T22:14:04.670Z,19.5
2017-10-01T22:16:08.040Z,19.5
2017-10-01T22:18:07.442Z,19.5
2017-10-01T22:20:05.120Z,19.5
2017-10-01T22:22:04.821Z,19.5
2017-10-01T22:24:10.592Z,19.5
2017-10-01T22:26:07.388Z,19.6
2017-10-01T22:28:05.232Z,19.6
2017-10-01T22:30:05.045Z,19.5
2017-10-01T22:32:04.757Z,19.5
2017-10-01T22:34:04.674Z,19.5
2017-10-01T22:36:05.382Z,19.5
2017-10-01T22:38:05.601Z,19.5
2017-10-01T22:40:05.332Z,19.5
2017-10-01T22:42:07.143Z,19.5
2017-10-01T22:44:07.339Z,19.5
2017-10-01T22:46:07.703Z,19.5
2017-10-01T22:48:05.403Z,19.5
2017-10-01T22:50:05.157Z,19.5
2017-10-01T22:52:07.681Z,19.5
2017-10-01T22:54:04.911Z,19.5
2017-10-01T22:56:04.652Z,19.5
2017-10-01T22:58:07.996Z,19.5
2017-10-01T23:00:04.702Z,19.5
2017-10-01T23:02:05.422Z,19.5
2017-10-01T23:04:05.290Z,19.5
2017-10-01T23:06:07.504Z,19.5
2017-10-01T23:08:12.757Z,19.5
2017-10-01T23:10:05.798Z,19.5
2017-10-01T23:12:05.610Z,19.5
2017-10-01T23:14:07.855Z,19.5
2017-10-01T23:16:05.835Z,19.5
2017-10-01T23:18:04.728Z,19.5
2017-10-01T23:20:13.053Z,19.4
2017-10-01T23:22:10.187Z,19.5
2017-10-01T23:24:05.472Z,19.5
2017-10-01T23:26:05.239Z,19.5
2017-10-01T23:28:07.603Z,19.5
2017-10-01T23:30:07.832Z,19.5
2017-10-01T23:32:05.513Z,19.5
2017-10-01T23:34:05.353Z,19.5
2017-10-01T23:36:07.598Z,19.5
2017-10-01T23:38:05.332Z,19.5
2017-10-01T23:40:04.791Z,19.5
2017-10-01T23:42:04.999Z,19.5
2017-10-01T23:44:04.724Z,19.5
2017-10-01T23:46:05.026Z,19.5
2017-10-01T23:48:04.725Z,19.5
2017-10-01T23:50:05.570Z,19.5
2017-10-01T23:52:05.272Z,19.5
2017-10-01T23:54:05.523Z,19.5
2017-10-01T23:56:05.204Z,19.5
2017-10-01T23:58:05.533Z,19.5
